sensor_id;sensor_type;location;lat;lon;timestamp;temperature;humidity
40589;DHT22;26297;49.450;6.640;2022-07-29T00:02:49;20.60;99.90
40589;DHT22;26297;49.450;6.640;2022-07-29T00:05:52;20.60;99.90
40589;DHT22;26297;49.450;6.640;2022-07-29T00:08:56;20.60;99.90
40589;DHT22;26297;49.450;6.640;2022-07-29T00:12:00;20.60;99.90
40589;DHT22;26297;49.450;6.640;2022-07-29T00:15:04;20.50;99.90
40589;DHT22;26297;49.450;6.640;2022-07-29T00:18:07;20.50;99.90
40589;DHT22;26297;49.450;6.640;2022-07-29T00:21:10;20.50;99.90
40589;DHT22;26297;49.450;6.640;2022-07-29T00:24:13;20.40;99.90
40589;DHT22;26297;49.450;6.640;2022-07-29T00:27:17;20.40;99.90
40589;DHT22;26297;49.450;6.640;2022-07-29T00:30:21;20.40;99.90
40589;DHT22;26297;49.450;6.640;2022-07-29T00:33:24;20.30;99.90
40589;DHT22;26297;49.450;6.640;2022-07-29T00:36:28;20.30;99.90
40589;DHT22;26297;49.450;6.640;2022-07-29T00:39:31;20.30;99.90
40589;DHT22;26297;49.450;6.640;2022-07-29T00:42:44;20.30;99.90
40589;DHT22;26297;49.450;6.640;2022-07-29T00:45:47;20.30;99.90
40589;DHT22;26297;49.450;6.640;2022-07-29T00:48:50;20.30;99.90
40589;DHT22;26297;49.450;6.640;2022-07-29T00:51:53;20.30;99.90
40589;DHT22;26297;49.450;6.640;2022-07-29T00:54:57;20.30;99.90
40589;DHT22;26297;49.450;6.640;2022-07-29T00:58:01;20.40;99.90
40589;DHT22;26297;49.450;6.640;2022-07-29T01:01:04;20.40;99.90
40589;DHT22;26297;49.450;6.640;2022-07-29T01:04:07;20.50;99.90
40589;DHT22;26297;49.450;6.640;2022-07-29T01:07:10;20.60;99.90
40589;DHT22;26297;49.450;6.640;2022-07-29T01:10:14;20.70;99.90
40589;DHT22;26297;49.450;6.640;2022-07-29T01:13:19;20.70;99.90
40589;DHT22;26297;49.450;6.640;2022-07-29T01:16:32;20.80;99.90
40589;DHT22;26297;49.450;6.640;2022-07-29T01:19:56;20.80;99.90
40589;DHT22;26297;49.450;6.640;2022-07-29T01:23:28;20.80;99.90
40589;DHT22;26297;49.450;6.640;2022-07-29T01:26:49;20.70;99.90
40589;DHT22;26297;49.450;6.640;2022-07-29T01:29:58;20.70;99.90
40589;DHT22;26297;49.450;6.640;2022-07-29T01:33:06;20.70;99.90
40589;DHT22;26297;49.450;6.640;2022-07-29T01:36:14;20.70;99.90
40589;DHT22;26297;49.450;6.640;2022-07-29T01:39:25;20.60;99.90
40589;DHT22;26297;49.450;6.640;2022-07-29T01:42:45;20.60;99.90
40589;DHT22;26297;49.450;6.640;2022-07-29T01:46:02;20.60;99.90
40589;DHT22;26297;49.450;6.640;2022-07-29T01:49:13;20.50;99.90
40589;DHT22;26297;49.450;6.640;2022-07-29T01:52:33;20.50;99.90
40589;DHT22;26297;49.450;6.640;2022-07-29T01:55:41;20.50;99.90
40589;DHT22;26297;49.450;6.640;2022-07-29T01:58:45;20.50;99.90
40589;DHT22;26297;49.450;6.640;2022-07-29T02:01:53;20.50;99.90
40589;DHT22;26297;49.450;6.640;2022-07-29T02:04:57;20.50;99.90
40589;DHT22;26297;49.450;6.640;2022-07-29T02:08:03;20.40;99.90
40589;DHT22;26297;49.450;6.640;2022-07-29T02:11:08;20.50;99.90
40589;DHT22;26297;49.450;6.640;2022-07-29T02:14:12;20.40;99.90
40589;DHT22;26297;49.450;6.640;2022-07-29T02:17:24;20.40;99.90
40589;DHT22;26297;49.450;6.640;2022-07-29T02:20:30;20.40;99.90
40589;DHT22;26297;49.450;6.640;2022-07-29T02:23:35;20.30;99.90
40589;DHT22;26297;49.450;6.640;2022-07-29T02:26:41;20.20;99.90
40589;DHT22;26297;49.450;6.640;2022-07-29T02:29:47;20.20;99.90
40589;DHT22;26297;49.450;6.640;2022-07-29T02:32:52;20.20;99.90
40589;DHT22;26297;49.450;6.640;2022-07-29T02:35:56;20.10;99.90
40589;DHT22;26297;49.450;6.640;2022-07-29T02:39:04;20.00;99.90
40589;DHT22;26297;49.450;6.640;2022-07-29T02:42:12;20.00;99.90
40589;DHT22;26297;49.450;6.640;2022-07-29T02:45:16;20.00;99.90
40589;DHT22;26297;49.450;6.640;2022-07-29T02:48:23;19.90;99.90
40589;DHT22;26297;49.450;6.640;2022-07-29T02:51:33;19.90;99.90
40589;DHT22;26297;49.450;6.640;2022-07-29T02:54:46;19.90;99.90
40589;DHT22;26297;49.450;6.640;2022-07-29T02:57:59;19.80;99.90
40589;DHT22;26297;49.450;6.640;2022-07-29T03:01:16;19.90;99.90
40589;DHT22;26297;49.450;6.640;2022-07-29T03:04:24;19.80;99.90
40589;DHT22;26297;49.450;6.640;2022-07-29T03:07:29;19.70;99.90
40589;DHT22;26297;49.450;6.640;2022-07-29T03:10:33;19.70;99.90
40589;DHT22;26297;49.450;6.640;2022-07-29T03:13:37;19.70;99.90
40589;DHT22;26297;49.450;6.640;2022-07-29T03:16:41;19.70;99.90
40589;DHT22;26297;49.450;6.640;2022-07-29T03:19:45;19.60;99.90
40589;DHT22;26297;49.450;6.640;2022-07-29T03:22:49;19.60;99.90
40589;DHT22;26297;49.450;6.640;2022-07-29T03:25:53;19.60;99.90
40589;DHT22;26297;49.450;6.640;2022-07-29T03:28:56;19.50;99.90
40589;DHT22;26297;49.450;6.640;2022-07-29T03:31:59;19.50;99.90
40589;DHT22;26297;49.450;6.640;2022-07-29T03:35:03;19.50;99.90
40589;DHT22;26297;49.450;6.640;2022-07-29T03:38:07;19.50;99.90
40589;DHT22;26297;49.450;6.640;2022-07-29T03:41:11;19.50;99.90
40589;DHT22;26297;49.450;6.640;2022-07-29T03:44:16;19.50;99.90
40589;DHT22;26297;49.450;6.640;2022-07-29T03:47:23;19.50;99.90
40589;DHT22;26297;49.450;6.640;2022-07-29T03:50:30;19.50;99.90
40589;DHT22;26297;49.450;6.640;2022-07-29T03:53:33;19.50;99.90
40589;DHT22;26297;49.450;6.640;2022-07-29T03:56:41;19.40;99.90
40589;DHT22;26297;49.450;6.640;2022-07-29T03:59:45;18.70;99.90
40589;DHT22;26297;49.450;6.640;2022-07-29T04:02:49;19.40;99.90
40589;DHT22;26297;49.450;6.640;2022-07-29T04:06:02;19.40;99.90
40589;DHT22;26297;49.450;6.640;2022-07-29T04:09:06;19.40;99.90
40589;DHT22;26297;49.450;6.640;2022-07-29T04:12:10;19.40;99.90
40589;DHT22;26297;49.450;6.640;2022-07-29T04:15:13;19.40;99.90
40589;DHT22;26297;49.450;6.640;2022-07-29T04:18:16;19.30;99.90
40589;DHT22;26297;49.450;6.640;2022-07-29T04:21:19;19.30;99.90
40589;DHT22;26297;49.450;6.640;2022-07-29T04:24:23;19.30;99.90
40589;DHT22;26297;49.450;6.640;2022-07-29T04:27:32;19.20;99.90
40589;DHT22;26297;49.450;6.640;2022-07-29T04:30:38;19.20;99.90
40589;DHT22;26297;49.450;6.640;2022-07-29T04:33:41;19.20;99.90
40589;DHT22;26297;49.450;6.640;2022-07-29T04:36:45;19.20;99.90
40589;DHT22;26297;49.450;6.640;2022-07-29T04:39:48;19.20;99.90
40589;DHT22;26297;49.450;6.640;2022-07-29T04:42:51;19.20;99.90
40589;DHT22;26297;49.450;6.640;2022-07-29T04:45:54;19.20;99.90
40589;DHT22;26297;49.450;6.640;2022-07-29T04:48:58;19.20;99.90
40589;DHT22;26297;49.450;6.640;2022-07-29T04:52:01;19.20;99.90
40589;DHT22;26297;49.450;6.640;2022-07-29T04:55:05;19.20;99.90
40589;DHT22;26297;49.450;6.640;2022-07-29T04:58:11;19.20;99.90
40589;DHT22;26297;49.450;6.640;2022-07-29T05:01:14;19.20;99.90
40589;DHT22;26297;49.450;6.640;2022-07-29T05:04:17;19.20;99.90
40589;DHT22;26297;49.450;6.640;2022-07-29T05:07:20;19.20;99.90
40589;DHT22;26297;49.450;6.640;2022-07-29T05:10:23;19.30;99.90
40589;DHT22;26297;49.450;6.640;2022-07-29T05:13:25;19.30;99.90
40589;DHT22;26297;49.450;6.640;2022-07-29T05:16:28;19.30;99.90
40589;DHT22;26297;49.450;6.640;2022-07-29T05:19:31;19.40;99.90
40589;DHT22;26297;49.450;6.640;2022-07-29T05:22:35;19.60;99.90
40589;DHT22;26297;49.450;6.640;2022-07-29T05:25:38;19.70;99.90
40589;DHT22;26297;49.450;6.640;2022-07-29T05:28:41;19.90;99.90
40589;DHT22;26297;49.450;6.640;2022-07-29T05:31:44;20.10;99.90
40589;DHT22;26297;49.450;6.640;2022-07-29T05:34:48;20.30;99.90
40589;DHT22;26297;49.450;6.640;2022-07-29T05:37:50;20.40;99.90
40589;DHT22;26297;49.450;6.640;2022-07-29T05:40:56;20.40;99.90
40589;DHT22;26297;49.450;6.640;2022-07-29T05:44:00;20.40;99.90
40589;DHT22;26297;49.450;6.640;2022-07-29T05:47:03;20.40;99.90
40589;DHT22;26297;49.450;6.640;2022-07-29T05:50:07;20.50;99.90
40589;DHT22;26297;49.450;6.640;2022-07-29T05:53:10;20.50;99.90
40589;DHT22;26297;49.450;6.640;2022-07-29T05:56:13;20.60;99.90
40589;DHT22;26297;49.450;6.640;2022-07-29T05:59:17;20.60;99.90
40589;DHT22;26297;49.450;6.640;2022-07-29T06:02:20;20.60;99.90
40589;DHT22;26297;49.450;6.640;2022-07-29T06:05:23;20.70;99.90
40589;DHT22;26297;49.450;6.640;2022-07-29T06:08:30;20.70;99.90
40589;DHT22;26297;49.450;6.640;2022-07-29T06:11:33;20.70;99.90
40589;DHT22;26297;49.450;6.640;2022-07-29T06:14:36;20.70;99.90
40589;DHT22;26297;49.450;6.640;2022-07-29T06:17:40;20.80;99.90
40589;DHT22;26297;49.450;6.640;2022-07-29T06:20:44;20.80;99.90
40589;DHT22;26297;49.450;6.640;2022-07-29T06:23:47;20.80;99.90
40589;DHT22;26297;49.450;6.640;2022-07-29T06:26:50;20.80;99.90
40589;DHT22;26297;49.450;6.640;2022-07-29T06:29:53;20.80;99.90
40589;DHT22;26297;49.450;6.640;2022-07-29T06:32:56;20.80;99.90
40589;DHT22;26297;49.450;6.640;2022-07-29T06:35:59;20.90;99.90
40589;DHT22;26297;49.450;6.640;2022-07-29T06:39:06;20.90;99.90
40589;DHT22;26297;49.450;6.640;2022-07-29T06:42:10;20.80;99.90
40589;DHT22;26297;49.450;6.640;2022-07-29T06:45:13;20.90;99.90
40589;DHT22;26297;49.450;6.640;2022-07-29T06:48:16;20.90;99.90
40589;DHT22;26297;49.450;6.640;2022-07-29T06:51:20;20.90;99.90
40589;DHT22;26297;49.450;6.640;2022-07-29T06:54:23;20.90;99.90
40589;DHT22;26297;49.450;6.640;2022-07-29T06:57:27;20.90;99.90
40589;DHT22;26297;49.450;6.640;2022-07-29T07:00:30;20.90;99.90
40589;DHT22;26297;49.450;6.640;2022-07-29T07:03:34;20.90;99.90
40589;DHT22;26297;49.450;6.640;2022-07-29T07:06:37;20.90;99.90
40589;DHT22;26297;49.450;6.640;2022-07-29T07:09:40;21.00;99.90
40589;DHT22;26297;49.450;6.640;2022-07-29T07:12:44;21.00;99.90
40589;DHT22;26297;49.450;6.640;2022-07-29T07:15:48;21.00;99.90
40589;DHT22;26297;49.450;6.640;2022-07-29T07:18:51;21.00;99.90
40589;DHT22;26297;49.450;6.640;2022-07-29T07:21:54;21.10;99.90
40589;DHT22;26297;49.450;6.640;2022-07-29T07:24:57;21.10;99.90
40589;DHT22;26297;49.450;6.640;2022-07-29T07:28:01;21.10;99.90
40589;DHT22;26297;49.450;6.640;2022-07-29T07:31:05;21.10;99.90
40589;DHT22;26297;49.450;6.640;2022-07-29T07:34:08;21.10;99.90
40589;DHT22;26297;49.450;6.640;2022-07-29T07:37:11;21.10;99.90
40589;DHT22;26297;49.450;6.640;2022-07-29T07:40:15;21.20;99.90
40589;DHT22;26297;49.450;6.640;2022-07-29T07:43:17;21.20;99.90
40589;DHT22;26297;49.450;6.640;2022-07-29T07:46:21;21.20;99.90
40589;DHT22;26297;49.450;6.640;2022-07-29T07:49:24;21.20;99.90
40589;DHT22;26297;49.450;6.640;2022-07-29T07:52:27;21.20;99.90
40589;DHT22;26297;49.450;6.640;2022-07-29T07:55:30;21.30;99.90
40589;DHT22;26297;49.450;6.640;2022-07-29T07:58:33;21.30;99.90
40589;DHT22;26297;49.450;6.640;2022-07-29T08:01:38;21.30;99.90
40589;DHT22;26297;49.450;6.640;2022-07-29T08:04:42;21.30;99.90
40589;DHT22;26297;49.450;6.640;2022-07-29T08:07:46;21.30;99.90
40589;DHT22;26297;49.450;6.640;2022-07-29T08:10:49;21.30;99.90
40589;DHT22;26297;49.450;6.640;2022-07-29T08:13:55;21.40;99.90
40589;DHT22;26297;49.450;6.640;2022-07-29T08:16:59;21.40;99.90
40589;DHT22;26297;49.450;6.640;2022-07-29T08:20:03;21.40;99.90
40589;DHT22;26297;49.450;6.640;2022-07-29T08:23:07;21.50;99.90
40589;DHT22;26297;49.450;6.640;2022-07-29T08:26:12;21.50;99.90
40589;DHT22;26297;49.450;6.640;2022-07-29T08:29:16;21.50;99.90
40589;DHT22;26297;49.450;6.640;2022-07-29T08:32:19;21.50;99.90
40589;DHT22;26297;49.450;6.640;2022-07-29T08:35:25;21.50;99.90
40589;DHT22;26297;49.450;6.640;2022-07-29T08:38:28;21.50;99.90
40589;DHT22;26297;49.450;6.640;2022-07-29T08:41:32;21.60;99.90
40589;DHT22;26297;49.450;6.640;2022-07-29T08:44:35;21.60;99.90
40589;DHT22;26297;49.450;6.640;2022-07-29T08:47:39;21.60;99.90
40589;DHT22;26297;49.450;6.640;2022-07-29T08:50:44;21.60;99.90
40589;DHT22;26297;49.450;6.640;2022-07-29T08:53:49;21.60;99.90
40589;DHT22;26297;49.450;6.640;2022-07-29T08:56:53;21.60;99.90
40589;DHT22;26297;49.450;6.640;2022-07-29T08:59:59;21.70;99.90
40589;DHT22;26297;49.450;6.640;2022-07-29T09:03:04;21.70;99.90
40589;DHT22;26297;49.450;6.640;2022-07-29T09:06:08;21.80;99.90
40589;DHT22;26297;49.450;6.640;2022-07-29T09:09:12;21.80;99.90
40589;DHT22;26297;49.450;6.640;2022-07-29T09:12:17;21.80;99.90
40589;DHT22;26297;49.450;6.640;2022-07-29T09:15:20;21.80;99.90
40589;DHT22;26297;49.450;6.640;2022-07-29T09:21:40;21.90;99.90
40589;DHT22;26297;49.450;6.640;2022-07-29T09:25:02;21.90;99.90
40589;DHT22;26297;49.450;6.640;2022-07-29T09:28:13;21.90;99.90
40589;DHT22;26297;49.450;6.640;2022-07-29T09:31:33;21.90;99.90
40589;DHT22;26297;49.450;6.640;2022-07-29T09:34:40;21.80;99.90
40589;DHT22;26297;49.450;6.640;2022-07-29T09:37:47;21.80;99.90
40589;DHT22;26297;49.450;6.640;2022-07-29T09:40:58;21.80;99.90
40589;DHT22;26297;49.450;6.640;2022-07-29T09:44:01;21.70;99.90
40589;DHT22;26297;49.450;6.640;2022-07-29T09:47:05;21.70;99.90
40589;DHT22;26297;49.450;6.640;2022-07-29T09:50:08;21.80;99.90
40589;DHT22;26297;49.450;6.640;2022-07-29T09:53:12;21.80;99.90
40589;DHT22;26297;49.450;6.640;2022-07-29T09:56:40;21.90;99.90
40589;DHT22;26297;49.450;6.640;2022-07-29T10:00:06;21.90;99.90
40589;DHT22;26297;49.450;6.640;2022-07-29T10:03:09;21.90;99.90
40589;DHT22;26297;49.450;6.640;2022-07-29T10:06:13;21.90;99.90
40589;DHT22;26297;49.450;6.640;2022-07-29T10:09:16;21.90;99.90
40589;DHT22;26297;49.450;6.640;2022-07-29T10:12:19;21.90;99.90
40589;DHT22;26297;49.450;6.640;2022-07-29T10:15:29;21.90;99.90
40589;DHT22;26297;49.450;6.640;2022-07-29T10:18:34;22.00;99.90
40589;DHT22;26297;49.450;6.640;2022-07-29T10:21:37;22.00;99.90
40589;DHT22;26297;49.450;6.640;2022-07-29T10:24:42;22.00;99.90
40589;DHT22;26297;49.450;6.640;2022-07-29T10:27:49;22.00;99.90
40589;DHT22;26297;49.450;6.640;2022-07-29T10:31:01;22.00;99.70
40589;DHT22;26297;49.450;6.640;2022-07-29T10:37:37;22.00;98.70
40589;DHT22;26297;49.450;6.640;2022-07-29T10:44:23;22.00;99.90
40589;DHT22;26297;49.450;6.640;2022-07-29T10:47:28;22.00;99.90
40589;DHT22;26297;49.450;6.640;2022-07-29T10:50:57;22.00;99.90
40589;DHT22;26297;49.450;6.640;2022-07-29T10:54:01;22.00;99.30
40589;DHT22;26297;49.450;6.640;2022-07-29T11:00:32;22.00;99.90
40589;DHT22;26297;49.450;6.640;2022-07-29T11:03:48;22.10;99.50
40589;DHT22;26297;49.450;6.640;2022-07-29T11:17:04;22.20;99.30
40589;DHT22;26297;49.450;6.640;2022-07-29T11:23:33;22.30;93.00
40589;DHT22;26297;49.450;6.640;2022-07-29T11:26:38;22.30;93.50
40589;DHT22;26297;49.450;6.640;2022-07-29T11:29:50;22.30;98.00
40589;DHT22;26297;49.450;6.640;2022-07-29T11:32:56;22.30;96.70
40589;DHT22;26297;49.450;6.640;2022-07-29T11:36:14;22.90;93.60
40589;DHT22;26297;49.450;6.640;2022-07-29T11:39:27;22.40;93.70
40589;DHT22;26297;49.450;6.640;2022-07-29T11:45:45;22.40;94.30
40589;DHT22;26297;49.450;6.640;2022-07-29T11:48:49;22.40;93.80
40589;DHT22;26297;49.450;6.640;2022-07-29T11:51:57;22.50;93.50
40589;DHT22;26297;49.450;6.640;2022-07-29T11:55:05;22.50;93.50
40589;DHT22;26297;49.450;6.640;2022-07-29T11:58:10;22.50;99.90
40589;DHT22;26297;49.450;6.640;2022-07-29T12:01:14;22.40;99.90
40589;DHT22;26297;49.450;6.640;2022-07-29T12:04:25;22.30;99.90
40589;DHT22;26297;49.450;6.640;2022-07-29T12:07:30;22.20;99.20
40589;DHT22;26297;49.450;6.640;2022-07-29T12:10:37;22.20;96.80
40589;DHT22;26297;49.450;6.640;2022-07-29T12:13:52;22.30;99.50
40589;DHT22;26297;49.450;6.640;2022-07-29T12:16:56;22.30;97.40
40589;DHT22;26297;49.450;6.640;2022-07-29T12:20:30;22.30;97.20
40589;DHT22;26297;49.450;6.640;2022-07-29T12:24:01;22.40;96.70
40589;DHT22;26297;49.450;6.640;2022-07-29T12:27:18;22.30;98.40
40589;DHT22;26297;49.450;6.640;2022-07-29T12:30:37;22.30;99.90
40589;DHT22;26297;49.450;6.640;2022-07-29T12:33:42;22.40;99.90
40589;DHT22;26297;49.450;6.640;2022-07-29T12:37:03;22.40;99.90
40589;DHT22;26297;49.450;6.640;2022-07-29T12:40:22;23.00;99.90
40589;DHT22;26297;49.450;6.640;2022-07-29T12:44:42;21.60;99.90
40589;DHT22;26297;49.450;6.640;2022-07-29T12:47:55;21.10;99.90
40589;DHT22;26297;49.450;6.640;2022-07-29T12:51:03;22.10;99.90
40589;DHT22;26297;49.450;6.640;2022-07-29T12:54:13;22.30;97.80
40589;DHT22;26297;49.450;6.640;2022-07-29T12:57:18;22.40;95.40
40589;DHT22;26297;49.450;6.640;2022-07-29T13:00:24;22.50;99.90
40589;DHT22;26297;49.450;6.640;2022-07-29T13:07:01;22.50;98.60
40589;DHT22;26297;49.450;6.640;2022-07-29T13:10:13;22.60;97.80
40589;DHT22;26297;49.450;6.640;2022-07-29T13:13:17;22.60;96.30
40589;DHT22;26297;49.450;6.640;2022-07-29T13:16:21;22.60;99.90
40589;DHT22;26297;49.450;6.640;2022-07-29T13:23:07;22.60;98.30
40589;DHT22;26297;49.450;6.640;2022-07-29T13:30:16;22.30;99.80
40589;DHT22;26297;49.450;6.640;2022-07-29T13:33:21;22.70;99.90
40589;DHT22;26297;49.450;6.640;2022-07-29T13:36:25;22.60;99.90
40589;DHT22;26297;49.450;6.640;2022-07-29T13:39:32;22.60;99.90
40589;DHT22;26297;49.450;6.640;2022-07-29T13:42:38;22.40;99.90
40589;DHT22;26297;49.450;6.640;2022-07-29T13:45:42;22.40;99.90
40589;DHT22;26297;49.450;6.640;2022-07-29T13:48:48;22.40;99.90
40589;DHT22;26297;49.450;6.640;2022-07-29T13:51:54;22.40;99.90
40589;DHT22;26297;49.450;6.640;2022-07-29T13:54:57;22.50;99.90
40589;DHT22;26297;49.450;6.640;2022-07-29T13:58:10;22.50;99.90
40589;DHT22;26297;49.450;6.640;2022-07-29T14:01:16;22.60;99.90
40589;DHT22;26297;49.450;6.640;2022-07-29T14:04:19;22.70;99.90
40589;DHT22;26297;49.450;6.640;2022-07-29T14:07:27;22.50;99.90
40589;DHT22;26297;49.450;6.640;2022-07-29T14:10:30;22.50;99.90
40589;DHT22;26297;49.450;6.640;2022-07-29T14:13:36;22.40;99.90
40589;DHT22;26297;49.450;6.640;2022-07-29T14:16:39;22.40;99.90
40589;DHT22;26297;49.450;6.640;2022-07-29T14:19:44;22.50;99.90
40589;DHT22;26297;49.450;6.640;2022-07-29T14:22:47;22.70;96.20
40589;DHT22;26297;49.450;6.640;2022-07-29T14:25:54;22.70;97.60
40589;DHT22;26297;49.450;6.640;2022-07-29T14:28:57;22.80;94.50
40589;DHT22;26297;49.450;6.640;2022-07-29T14:32:00;22.80;99.90
40589;DHT22;26297;49.450;6.640;2022-07-29T14:35:05;22.80;99.90
40589;DHT22;26297;49.450;6.640;2022-07-29T14:38:11;22.60;99.90
40589;DHT22;26297;49.450;6.640;2022-07-29T14:41:15;22.70;99.90
40589;DHT22;26297;49.450;6.640;2022-07-29T14:44:18;22.70;99.90
40589;DHT22;26297;49.450;6.640;2022-07-29T14:47:21;22.60;99.90
40589;DHT22;26297;49.450;6.640;2022-07-29T14:50:26;22.50;99.90
40589;DHT22;26297;49.450;6.640;2022-07-29T14:53:30;22.60;99.90
40589;DHT22;26297;49.450;6.640;2022-07-29T14:56:33;22.60;99.90
40589;DHT22;26297;49.450;6.640;2022-07-29T14:59:36;22.80;99.90
40589;DHT22;26297;49.450;6.640;2022-07-29T15:02:40;22.70;99.90
40589;DHT22;26297;49.450;6.640;2022-07-29T15:05:43;22.80;99.90
40589;DHT22;26297;49.450;6.640;2022-07-29T15:08:46;22.90;94.20
40589;DHT22;26297;49.450;6.640;2022-07-29T15:11:52;23.10;91.40
40589;DHT22;26297;49.450;6.640;2022-07-29T15:14:56;23.20;92.80
40589;DHT22;26297;49.450;6.640;2022-07-29T15:17:59;23.10;89.90
40589;DHT22;26297;49.450;6.640;2022-07-29T15:21:02;23.50;87.00
40589;DHT22;26297;49.450;6.640;2022-07-29T15:24:06;23.60;89.20
40589;DHT22;26297;49.450;6.640;2022-07-29T15:27:10;23.60;90.60
40589;DHT22;26297;49.450;6.640;2022-07-29T15:30:16;23.60;90.30
40589;DHT22;26297;49.450;6.640;2022-07-29T15:33:20;23.60;88.80
40589;DHT22;26297;49.450;6.640;2022-07-29T15:36:23;23.60;88.80
40589;DHT22;26297;49.450;6.640;2022-07-29T15:39:26;23.70;87.80
40589;DHT22;26297;49.450;6.640;2022-07-29T15:42:29;23.60;88.10
40589;DHT22;26297;49.450;6.640;2022-07-29T15:45:39;22.50;90.00
40589;DHT22;26297;49.450;6.640;2022-07-29T15:48:42;23.70;86.80
40589;DHT22;26297;49.450;6.640;2022-07-29T15:51:45;23.20;92.00
40589;DHT22;26297;49.450;6.640;2022-07-29T15:54:48;23.50;90.70
40589;DHT22;26297;49.450;6.640;2022-07-29T15:57:52;23.50;90.60
40589;DHT22;26297;49.450;6.640;2022-07-29T16:00:55;23.50;90.80
40589;DHT22;26297;49.450;6.640;2022-07-29T16:03:58;23.50;91.10
40589;DHT22;26297;49.450;6.640;2022-07-29T16:07:02;23.40;94.70
40589;DHT22;26297;49.450;6.640;2022-07-29T16:10:06;23.40;99.20
40589;DHT22;26297;49.450;6.640;2022-07-29T16:13:09;23.30;96.30
40589;DHT22;26297;49.450;6.640;2022-07-29T16:16:12;23.40;94.10
40589;DHT22;26297;49.450;6.640;2022-07-29T16:19:16;23.40;91.20
40589;DHT22;26297;49.450;6.640;2022-07-29T16:22:19;23.40;92.90
40589;DHT22;26297;49.450;6.640;2022-07-29T16:25:22;23.30;93.70
40589;DHT22;26297;49.450;6.640;2022-07-29T16:28:26;23.40;91.50
40589;DHT22;26297;49.450;6.640;2022-07-29T16:31:33;23.30;93.20
40589;DHT22;26297;49.450;6.640;2022-07-29T16:34:36;23.40;95.60
40589;DHT22;26297;49.450;6.640;2022-07-29T16:37:39;23.40;92.30
40589;DHT22;26297;49.450;6.640;2022-07-29T16:40:42;23.30;95.40
40589;DHT22;26297;49.450;6.640;2022-07-29T16:43:46;23.30;91.50
40589;DHT22;26297;49.450;6.640;2022-07-29T16:46:49;23.40;86.70
40589;DHT22;26297;49.450;6.640;2022-07-29T16:49:52;23.50;85.60
40589;DHT22;26297;49.450;6.640;2022-07-29T16:52:57;23.50;82.80
40589;DHT22;26297;49.450;6.640;2022-07-29T16:56:00;23.60;82.10
40589;DHT22;26297;49.450;6.640;2022-07-29T16:59:04;23.60;84.30
40589;DHT22;26297;49.450;6.640;2022-07-29T17:02:07;23.60;83.40
40589;DHT22;26297;49.450;6.640;2022-07-29T17:05:11;23.60;90.40
40589;DHT22;26297;49.450;6.640;2022-07-29T17:08:14;23.50;91.80
40589;DHT22;26297;49.450;6.640;2022-07-29T17:11:17;23.50;89.60
40589;DHT22;26297;49.450;6.640;2022-07-29T17:14:23;23.50;90.50
40589;DHT22;26297;49.450;6.640;2022-07-29T17:17:27;23.50;90.20
40589;DHT22;26297;49.450;6.640;2022-07-29T17:20:30;23.50;87.00
40589;DHT22;26297;49.450;6.640;2022-07-29T17:23:34;23.50;85.80
40589;DHT22;26297;49.450;6.640;2022-07-29T17:26:38;23.60;86.80
40589;DHT22;26297;49.450;6.640;2022-07-29T17:29:46;23.70;82.20
40589;DHT22;26297;49.450;6.640;2022-07-29T17:32:49;23.70;83.70
40589;DHT22;26297;49.450;6.640;2022-07-29T17:35:52;23.70;85.10
40589;DHT22;26297;49.450;6.640;2022-07-29T17:39:14;23.80;82.70
40589;DHT22;26297;49.450;6.640;2022-07-29T17:42:17;23.80;80.70
40589;DHT22;26297;49.450;6.640;2022-07-29T17:45:20;23.80;82.60
40589;DHT22;26297;49.450;6.640;2022-07-29T17:48:23;23.80;79.30
40589;DHT22;26297;49.450;6.640;2022-07-29T17:51:26;23.80;82.10
40589;DHT22;26297;49.450;6.640;2022-07-29T17:54:30;23.90;81.40
40589;DHT22;26297;49.450;6.640;2022-07-29T17:57:33;23.80;82.00
40589;DHT22;26297;49.450;6.640;2022-07-29T18:00:37;23.80;82.70
40589;DHT22;26297;49.450;6.640;2022-07-29T18:03:41;23.80;80.70
40589;DHT22;26297;49.450;6.640;2022-07-29T18:06:44;23.70;84.00
40589;DHT22;26297;49.450;6.640;2022-07-29T18:09:47;23.70;86.60
40589;DHT22;26297;49.450;6.640;2022-07-29T18:12:51;23.70;80.60
40589;DHT22;26297;49.450;6.640;2022-07-29T18:15:54;23.70;83.80
40589;DHT22;26297;49.450;6.640;2022-07-29T18:18:58;23.70;82.90
40589;DHT22;26297;49.450;6.640;2022-07-29T18:22:01;23.70;83.70
40589;DHT22;26297;49.450;6.640;2022-07-29T18:25:05;23.70;85.10
40589;DHT22;26297;49.450;6.640;2022-07-29T18:28:09;23.60;83.10
40589;DHT22;26297;49.450;6.640;2022-07-29T18:31:12;23.60;85.40
40589;DHT22;26297;49.450;6.640;2022-07-29T18:34:15;23.60;90.40
40589;DHT22;26297;49.450;6.640;2022-07-29T18:37:19;23.60;92.90
40589;DHT22;26297;49.450;6.640;2022-07-29T18:40:23;23.50;89.10
40589;DHT22;26297;49.450;6.640;2022-07-29T18:43:27;23.50;87.70
40589;DHT22;26297;49.450;6.640;2022-07-29T18:46:36;23.50;85.60
40589;DHT22;26297;49.450;6.640;2022-07-29T18:49:40;23.50;90.50
40589;DHT22;26297;49.450;6.640;2022-07-29T18:52:43;23.50;90.50
40589;DHT22;26297;49.450;6.640;2022-07-29T18:55:53;23.40;91.40
40589;DHT22;26297;49.450;6.640;2022-07-29T18:59:06;23.40;90.60
40589;DHT22;26297;49.450;6.640;2022-07-29T19:02:46;23.20;92.10
40589;DHT22;26297;49.450;6.640;2022-07-29T19:05:58;23.30;92.70
40589;DHT22;26297;49.450;6.640;2022-07-29T19:09:05;23.20;95.20
40589;DHT22;26297;49.450;6.640;2022-07-29T19:12:11;23.20;95.80
40589;DHT22;26297;49.450;6.640;2022-07-29T19:15:15;22.20;97.00
40589;DHT22;26297;49.450;6.640;2022-07-29T19:18:18;23.00;96.90
40589;DHT22;26297;49.450;6.640;2022-07-29T19:21:21;22.90;97.80
40589;DHT22;26297;49.450;6.640;2022-07-29T19:24:25;22.80;96.80
40589;DHT22;26297;49.450;6.640;2022-07-29T19:27:29;22.70;98.20
40589;DHT22;26297;49.450;6.640;2022-07-29T19:30:32;22.70;98.60
40589;DHT22;26297;49.450;6.640;2022-07-29T19:33:35;22.60;99.90
40589;DHT22;26297;49.450;6.640;2022-07-29T19:36:39;22.60;99.90
40589;DHT22;26297;49.450;6.640;2022-07-29T19:39:43;22.60;99.80
40589;DHT22;26297;49.450;6.640;2022-07-29T19:42:47;22.60;99.90
40589;DHT22;26297;49.450;6.640;2022-07-29T19:45:52;22.60;99.90
40589;DHT22;26297;49.450;6.640;2022-07-29T19:48:55;22.60;99.90
40589;DHT22;26297;49.450;6.640;2022-07-29T19:51:59;22.60;99.90
40589;DHT22;26297;49.450;6.640;2022-07-29T19:55:03;22.60;99.90
40589;DHT22;26297;49.450;6.640;2022-07-29T19:58:06;22.60;99.90
40589;DHT22;26297;49.450;6.640;2022-07-29T20:01:10;22.60;99.90
40589;DHT22;26297;49.450;6.640;2022-07-29T20:04:14;22.60;99.90
40589;DHT22;26297;49.450;6.640;2022-07-29T20:07:17;22.60;99.90
40589;DHT22;26297;49.450;6.640;2022-07-29T20:10:20;22.60;99.90
40589;DHT22;26297;49.450;6.640;2022-07-29T20:13:23;22.60;99.90
40589;DHT22;26297;49.450;6.640;2022-07-29T20:16:26;22.60;99.90